createdAt,value
2019-04-20T00:01:05.230Z,52.87
2019-04-20T00:03:43.199Z,53.23
2019-04-20T00:06:17.366Z,53.33
2019-04-20T00:08:59.823Z,53.48
2019-04-20T00:11:41.495Z,52.92
2019-04-20T00:14:14.508Z,52.96
2019-04-20T00:16:44.610Z,52.40
2019-04-20T00:19:27.769Z,52.50
2019-04-20T00:22:09.851Z,52.53
2019-04-20T00:25:00.437Z,52.29
2019-04-20T00:27:52.606Z,52.64
2019-04-20T00:30:28.557Z,52.78
2019-04-20T00:32:55.857Z,52.68
2019-04-20T00:35:19.310Z,52.65
2019-04-20T00:37:54.963Z,52.82
2019-04-20T00:40:30.618Z,52.72
2019-04-20T00:43:06.677Z,53.16
2019-04-20T00:45:46.888Z,53.14
2019-04-20T00:48:28.142Z,52.87
2019-04-20T00:51:20.296Z,53.09
2019-04-20T00:53:38.068Z,53.30
2019-04-20T00:56:10.011Z,53.78
2019-04-20T00:58:58.088Z,54.02
2019-04-20T01:01:42.644Z,54.06
2019-04-20T01:04:19.878Z,53.97
2019-04-20T01:07:15.268Z,53.93
2019-04-20T01:10:05.174Z,54.08
2019-04-20T01:12:43.711Z,53.60
2019-04-20T01:15:28.127Z,53.58
2019-04-20T01:17:54.816Z,54.56
2019-04-20T01:20:29.984Z,54.56
2019-04-20T01:23:10.109Z,54.46
2019-04-20T01:25:44.268Z,54.59
2019-04-20T01:28:34.841Z,54.20
2019-04-20T01:31:06.386Z,54.00
2019-04-20T01:33:42.871Z,54.41
2019-04-20T01:36:25.557Z,54.68
2019-04-20T01:38:58.944Z,55.27
2019-04-20T01:41:22.548Z,55.06
2019-04-20T01:43:58.636Z,55.02
2019-04-20T01:46:38.362Z,54.74
2019-04-20T01:49:15.659Z,55.34
2019-04-20T01:52:00.175Z,55.14
2019-04-20T01:54:41.473Z,55.21
2019-04-20T01:57:28.411Z,55.36
2019-04-20T02:01:09.839Z,55.39
2019-04-20T02:04:03.246Z,55.63
2019-04-20T02:06:44.406Z,55.56
2019-04-20T02:09:19.096Z,55.15
2019-04-20T02:11:53.548Z,55.23
2019-04-20T02:14:35.604Z,55.70
2019-04-20T02:17:16.780Z,55.51
2019-04-20T02:20:05.422Z,55.33
2019-04-20T02:22:37.107Z,55.23
2019-04-20T02:24:55.530Z,54.89
2019-04-20T02:27:38.618Z,55.23
2019-04-20T02:30:39.620Z,54.98
2019-04-20T02:33:39.976Z,54.74
2019-04-20T02:36:20.983Z,54.63
2019-04-20T02:44:23.581Z,55.29
2019-04-20T02:46:55.403Z,55.30
2019-04-20T02:54:47.053Z,55.35
2019-04-20T02:57:44.134Z,55.39
2019-04-20T03:00:05.512Z,55.38
2019-04-20T03:02:19.393Z,55.37
2019-04-20T03:04:48.239Z,54.66
2019-04-20T03:07:31.670Z,56.41
2019-04-20T03:10:12.491Z,56.48
2019-04-20T03:12:50.760Z,56.30
2019-04-20T03:15:33.811Z,56.27
2019-04-20T03:18:11.972Z,56.55
2019-04-20T03:20:43.453Z,56.34
2019-04-20T03:23:30.022Z,55.87
2019-04-20T03:26:05.328Z,56.15
2019-04-20T03:28:54.225Z,56.13
2019-04-20T03:32:08.470Z,56.25
2019-04-20T03:37:04.144Z,56.67
2019-04-20T03:39:29.885Z,56.58
2019-04-20T03:41:52.003Z,57.14
2019-04-20T03:44:27.862Z,57.74
2019-04-20T03:47:05.237Z,57.71
2019-04-20T03:50:01.007Z,56.45
2019-04-20T03:52:58.300Z,56.70
2019-04-20T03:55:51.615Z,57.09
2019-04-20T03:58:53.225Z,56.62
2019-04-20T04:02:03.329Z,57.51
2019-04-20T04:04:25.723Z,57.39
2019-04-20T04:06:44.841Z,57.46
2019-04-20T04:09:25.693Z,57.57
2019-04-20T04:12:06.634Z,57.46
2019-04-20T04:14:28.456Z,56.21
2019-04-20T04:17:06.205Z,56.24
2019-04-20T04:19:51.174Z,56.20
2019-04-20T04:22:37.664Z,55.88
2019-04-20T04:25:10.195Z,55.88
2019-04-20T04:27:52.984Z,55.42
2019-04-20T04:30:28.336Z,56.51
2019-04-20T04:33:33.968Z,55.81
2019-04-20T04:35:39.082Z,55.44
2019-04-20T04:38:24.098Z,55.67
2019-04-20T04:41:11.261Z,54.59
2019-04-20T04:43:31.589Z,54.68
2019-04-20T04:45:53.308Z,54.27
2019-04-20T04:48:35.004Z,54.63
2019-04-20T04:51:12.925Z,54.19
2019-04-20T04:53:54.314Z,53.50
2019-04-20T04:56:22.166Z,54.00
2019-04-20T04:58:56.188Z,53.01
2019-04-20T05:01:33.686Z,52.06
2019-04-20T05:04:24.869Z,53.01
2019-04-20T05:06:59.863Z,52.95
2019-04-20T05:09:23.799Z,52.85
2019-04-20T05:12:05.513Z,52.77
2019-04-20T05:14:47.169Z,52.43
2019-04-20T05:17:34.215Z,50.96
2019-04-20T05:20:09.275Z,50.68
2019-04-20T05:22:50.993Z,50.90
2019-04-20T05:26:05.430Z,50.80
2019-04-20T05:28:27.912Z,51.06
2019-04-20T05:30:59.296Z,50.33
2019-04-20T05:33:48.888Z,49.82
2019-04-20T05:36:23.466Z,49.71
2019-04-20T05:39:19.199Z,49.01
2019-04-20T05:41:44.088Z,49.14
2019-04-20T05:44:27.706Z,48.47
2019-04-20T05:47:15.807Z,48.05
2019-04-20T05:49:41.562Z,48.37
2019-04-20T05:52:48.429Z,48.15
2019-04-20T05:55:04.127Z,47.19
2019-04-20T05:57:40.120Z,47.52
2019-04-20T06:00:13.623Z,47.12
2019-04-20T06:02:52.752Z,47.48
2019-04-20T06:05:31.615Z,46.08
2019-04-20T06:08:05.510Z,45.98
2019-04-20T06:10:45.164Z,46.24
2019-04-20T06:13:23.984Z,45.25
2019-04-20T06:16:07.831Z,45.68
2019-04-20T06:18:56.125Z,44.80
2019-04-20T06:21:49.021Z,44.55
2019-04-20T06:24:26.504Z,44.64
2019-04-20T06:27:06.286Z,45.33
2019-04-20T06:29:38.042Z,44.55
2019-04-20T06:32:21.106Z,44.33
2019-04-20T06:34:48.288Z,44.07
2019-04-20T06:37:27.201Z,43.36
2019-04-20T06:40:07.799Z,43.60
2019-04-20T06:42:45.590Z,43.44
2019-04-20T06:45:22.944Z,43.21
2019-04-20T06:47:57.822Z,42.88
2019-04-20T06:50:30.228Z,42.25
2019-04-20T06:53:43.622Z,42.33
2019-04-20T06:56:27.721Z,41.00
2019-04-20T06:58:57.713Z,41.48
2019-04-20T07:01:46.775Z,41.54
2019-04-20T07:04:31.750Z,40.42
2019-04-20T07:06:56.526Z,41.88
2019-04-20T07:12:32.964Z,40.63
2019-04-20T07:15:18.999Z,41.14
2019-04-20T07:21:09.897Z,41.49
2019-04-20T07:23:48.172Z,40.79
2019-04-20T07:26:22.293Z,40.88
2019-04-20T07:29:00.705Z,40.47
2019-04-20T07:31:35.234Z,40.65
2019-04-20T07:34:12.966Z,40.92
2019-04-20T07:36:57.403Z,41.21
2019-04-20T07:39:28.054Z,40.43
2019-04-20T07:42:08.484Z,40.51
2019-04-20T07:44:48.657Z,40.58
2019-04-20T07:47:24.141Z,39.78
2019-04-20T07:49:49.705Z,39.41
2019-04-20T07:52:10.611Z,39.98
2019-04-20T07:55:33.239Z,40.26
2019-04-20T07:57:39.414Z,40.10
2019-04-20T08:00:26.063Z,39.85
2019-04-20T08:03:16.905Z,40.04
2019-04-20T08:05:48.707Z,38.82
2019-04-20T08:08:28.194Z,38.32
2019-04-20T08:11:11.009Z,38.75
2019-04-20T08:13:51.399Z,37.95
2019-04-20T08:16:42.378Z,37.70
2019-04-20T08:19:02.464Z,38.48
2019-04-20T08:21:43.716Z,38.25
2019-04-20T08:24:13.166Z,37.07
2019-04-20T08:26:41.650Z,37.47
2019-04-20T08:29:36.752Z,39.52
2019-04-20T08:32:34.683Z,37.71
2019-04-20T08:35:15.474Z,37.64
2019-04-20T08:38:13.459Z,36.33
2019-04-20T08:40:36.111Z,37.26
2019-04-20T08:43:20.842Z,36.82
2019-04-20T08:45:51.083Z,35.97
2019-04-20T08:48:28.709Z,36.35
2019-04-20T08:51:06.155Z,36.33
2019-04-20T08:53:36.393Z,36.97
2019-04-20T08:56:09.982Z,35.72
2019-04-20T08:58:31.942Z,35.76
2019-04-20T09:01:10.629Z,35.86
2019-04-20T09:03:56.444Z,36.67
2019-04-20T09:06:38.864Z,36.31
2019-04-20T09:09:22.481Z,35.59
2019-04-20T09:11:54.303Z,35.52
2019-04-20T09:14:22.085Z,35.40
2019-04-20T09:17:08.018Z,35.62
2019-04-20T09:19:51.200Z,35.48
2019-04-20T09:22:38.790Z,35.75
2019-04-20T09:28:11.675Z,35.22
2019-04-20T09:30:53.188Z,34.97
2019-04-20T09:34:09.156Z,34.59
2019-04-20T09:36:49.379Z,35.04
2019-04-20T09:40:06.075Z,35.26
2019-04-20T09:42:27.489Z,34.50
2019-04-20T09:45:04.904Z,33.40
2019-04-20T09:47:45.002Z,34.07
2019-04-20T09:50:34.826Z,33.19
2019-04-20T09:53:10.031Z,33.37
2019-04-20T09:55:42.933Z,34.12
2019-04-20T09:58:18.081Z,33.36
2019-04-20T10:01:31.113Z,33.52
2019-04-20T10:03:57.389Z,32.69
2019-04-20T10:06:35.897Z,33.52
2019-04-20T10:09:10.006Z,33.10
2019-04-20T10:11:45.928Z,32.67
2019-04-20T10:14:22.610Z,32.76
2019-04-20T10:16:58.040Z,34.00
2019-04-20T10:19:35.698Z,33.25
2019-04-20T10:22:10.857Z,33.97
2019-04-20T10:24:49.209Z,33.13
2019-04-20T10:27:24.328Z,33.43
2019-04-20T10:30:02.773Z,32.21
2019-04-20T10:32:40.252Z,33.05
2019-04-20T10:35:16.585Z,32.83
2019-04-20T10:37:55.825Z,33.93
2019-04-20T10:40:44.975Z,33.68
2019-04-20T10:43:08.091Z,34.33
2019-04-20T10:45:44.863Z,33.34
2019-04-20T10:48:21.353Z,32.90
2019-04-20T10:50:56.918Z,34.10
2019-04-20T10:53:32.270Z,32.63
2019-04-20T10:56:07.491Z,32.21
2019-04-20T10:58:43.357Z,29.72
2019-04-20T11:01:19.847Z,31.06
2019-04-20T11:03:58.658Z,31.28
2019-04-20T11:06:34.563Z,29.67
2019-04-20T11:09:10.927Z,30.43
2019-04-20T11:11:46.338Z,31.19
2019-04-20T11:14:29.089Z,30.52
2019-04-20T11:17:00.296Z,29.73
2019-04-20T11:19:41.062Z,30.91
2019-04-20T11:22:16.698Z,29.33
2019-04-20T11:24:52.392Z,28.48
2019-04-20T11:27:28.021Z,28.61
2019-04-20T11:30:04.387Z,29.06
2019-04-20T11:32:40.221Z,28.33
2019-04-20T11:35:23.878Z,26.32
2019-04-20T11:37:53.254Z,25.79
2019-04-20T11:40:28.821Z,27.27
2019-04-20T11:43:04.052Z,25.84
2019-04-20T11:45:40.479Z,26.36
2019-04-20T11:48:15.862Z,26.91
2019-04-20T11:50:51.679Z,26.67
2019-04-20T11:53:30.343Z,25.57
2019-04-20T11:56:07.643Z,24.41
2019-04-20T11:58:42.807Z,25.38
2019-04-20T12:01:44.047Z,24.85
2019-04-20T12:04:27.107Z,25.68
2019-04-20T12:06:51.238Z,23.89
2019-04-20T12:09:26.382Z,24.08
2019-04-20T12:12:11.064Z,22.75
2019-04-20T12:14:38.790Z,23.60
2019-04-20T12:17:15.578Z,23.04
2019-04-20T12:19:50.629Z,23.90
2019-04-20T12:22:26.210Z,23.13
2019-04-20T12:25:02.564Z,24.31
2019-04-20T12:27:41.982Z,23.41
2019-04-20T12:30:15.512Z,23.23
2019-04-20T12:32:56.862Z,22.57
2019-04-20T12:35:29.998Z,23.08
2019-04-20T12:38:07.195Z,22.20
2019-04-20T12:40:42.505Z,22.11
2019-04-20T12:43:17.550Z,20.86
2019-04-20T12:45:53.783Z,21.24
2019-04-20T12:48:29.348Z,21.60
2019-04-20T12:51:05.714Z,20.84
2019-04-20T12:53:42.585Z,20.55
2019-04-20T12:56:17.719Z,20.57
2019-04-20T12:58:53.629Z,20.26
2019-04-20T13:01:30.141Z,19.63
2019-04-20T13:04:07.629Z,20.49
2019-04-20T13:06:42.863Z,19.26
2019-04-20T13:09:20.947Z,21.02
2019-04-20T13:12:08.970Z,20.66
2019-04-20T13:15:42.522Z,19.65
2019-04-20T13:18:21.181Z,20.45
2019-04-20T13:20:58.206Z,19.85
2019-04-20T13:23:39.065Z,19.93
2019-04-20T13:26:15.535Z,20.23
2019-04-20T13:28:51.259Z,20.00
2019-04-20T13:31:26.301Z,19.69
2019-04-20T13:34:01.645Z,20.23
2019-04-20T13:36:37.977Z,19.58
2019-04-20T13:39:14.301Z,19.38
2019-04-20T13:42:13.976Z,19.80
2019-04-20T13:44:45.291Z,19.69
2019-04-20T13:47:21.853Z,20.49
2019-04-20T13:49:58.872Z,20.64
2019-04-20T13:52:35.035Z,19.01
2019-04-20T13:55:10.906Z,18.91
2019-04-20T13:58:00.184Z,18.66
2019-04-20T14:01:00.978Z,18.69
2019-04-20T14:03:37.222Z,18.10
2019-04-20T14:06:14.310Z,18.51
2019-04-20T14:08:49.689Z,18.59
2019-04-20T14:11:25.750Z,17.93
2019-04-20T14:14:03.646Z,18.48
2019-04-20T14:16:38.707Z,19.05
2019-04-20T14:19:14.488Z,18.29
2019-04-20T14:21:50.204Z,19.87
2019-04-20T14:24:26.703Z,18.14
2019-04-20T14:27:03.626Z,18.12
2019-04-20T14:29:41.155Z,19.34
2019-04-20T14:32:16.792Z,17.17
2019-04-20T14:35:00.821Z,17.50
2019-04-20T14:37:36.034Z,18.05
2019-04-20T14:40:14.613Z,17.91
2019-04-20T14:42:53.136Z,18.14
2019-04-20T14:45:26.919Z,18.91
2019-04-20T14:48:03.743Z,18.89
2019-04-20T14:50:38.938Z,18.25
2019-04-20T14:53:15.607Z,17.71
2019-04-20T14:55:51.434Z,18.68
2019-04-20T14:58:43.393Z,17.88
2019-04-20T15:01:34.597Z,19.11
2019-04-20T15:04:14.698Z,19.62
2019-04-20T15:06:46.638Z,19.52
2019-04-20T15:09:22.896Z,19.52
2019-04-20T15:11:59.044Z,19.62
2019-04-20T15:14:34.655Z,20.38
2019-04-20T15:17:12.264Z,20.69
2019-04-20T15:20:09.726Z,20.81
2019-04-20T15:22:47.857Z,20.68
2019-04-20T15:25:23.429Z,20.83
2019-04-20T15:28:00.557Z,21.57
2019-04-20T15:30:36.143Z,22.34
2019-04-20T15:33:12.606Z,22.48
2019-04-20T15:35:48.715Z,22.73
2019-04-20T15:38:27.516Z,22.52
2019-04-20T15:41:05.328Z,23.22
2019-04-20T15:43:41.551Z,23.29
2019-04-20T15:46:17.217Z,23.31
2019-04-20T15:48:52.502Z,22.58
2019-04-20T15:51:27.937Z,23.09
2019-04-20T15:54:03.268Z,22.93
2019-04-20T15:56:52.683Z,21.90
2019-04-20T15:59:20.535Z,22.25
2019-04-20T16:02:00.225Z,22.37
2019-04-20T16:04:54.741Z,22.55
2019-04-20T16:07:32.954Z,24.13
2019-04-20T16:10:07.431Z,22.89
2019-04-20T16:12:42.742Z,23.10
2019-04-20T16:15:18.075Z,24.48
2019-04-20T16:17:54.951Z,23.80
2019-04-20T16:20:43.575Z,23.75
2019-04-20T16:23:06.982Z,24.03
2019-04-20T16:25:55.346Z,23.12
2019-04-20T16:28:31.938Z,23.54
2019-04-20T16:31:10.628Z,22.02
2019-04-20T16:33:46.465Z,20.61
2019-04-20T16:36:22.887Z,21.59
2019-04-20T16:38:59.425Z,21.86
2019-04-20T16:41:36.035Z,21.65
2019-04-20T16:44:11.733Z,22.76
2019-04-20T16:46:48.064Z,23.65
2019-04-20T16:49:23.439Z,23.89
2019-04-20T16:51:58.896Z,23.89
2019-04-20T16:54:35.526Z,23.45
2019-04-20T16:57:12.547Z,23.73
2019-04-20T16:59:51.220Z,22.74
2019-04-20T17:02:24.593Z,22.93
2019-04-20T17:05:00.857Z,22.28
2019-04-20T17:07:40.255Z,22.63
2019-04-20T17:10:18.026Z,24.17
2019-04-20T17:12:53.740Z,24.98
2019-04-20T17:15:29.668Z,25.09
2019-04-20T17:18:05.745Z,25.81
2019-04-20T17:20:41.100Z,27.67
2019-04-20T17:23:17.211Z,29.31
2019-04-20T17:25:53.030Z,29.31
2019-04-20T17:28:38.764Z,30.07
2019-04-20T17:31:27.109Z,31.19
2019-04-20T17:34:44.421Z,30.24
2019-04-20T17:37:04.545Z,31.61
2019-04-20T17:40:02.852Z,31.83
2019-04-20T17:42:33.362Z,32.83
2019-04-20T17:45:02.679Z,32.89
2019-04-20T17:47:52.895Z,32.83
2019-04-20T17:51:06.629Z,33.52
2019-04-20T17:53:47.351Z,33.91
2019-04-20T17:56:15.418Z,32.95
2019-04-20T17:58:52.215Z,35.08
2019-04-20T18:02:00.870Z,35.88
2019-04-20T18:04:57.488Z,36.36
2019-04-20T18:07:32.557Z,36.76
2019-04-20T18:10:03.110Z,36.90
2019-04-20T18:12:26.892Z,38.04
2019-04-20T18:15:18.211Z,37.82
2019-04-20T18:18:20.197Z,39.02
2019-04-20T18:20:48.275Z,39.42
2019-04-20T18:23:33.278Z,39.64
2019-04-20T18:26:24.217Z,39.48
2019-04-20T18:29:03.574Z,39.57
2019-04-20T18:31:29.151Z,40.60
2019-04-20T18:34:20.239Z,40.34
2019-04-20T18:36:52.822Z,39.95
2019-04-20T18:39:39.956Z,40.71
2019-04-20T18:42:15.812Z,41.75
2019-04-20T18:45:04.329Z,42.14
2019-04-20T18:47:41.849Z,41.16
2019-04-20T18:50:07.696Z,41.50
2019-04-20T18:52:34.171Z,42.07
2019-04-20T18:55:17.296Z,42.52
2019-04-20T18:57:46.969Z,42.73
2019-04-20T19:00:30.488Z,42.78
2019-04-20T19:03:09.643Z,43.87
2019-04-20T19:05:39.889Z,44.02
2019-04-20T19:08:18.024Z,44.08
2019-04-20T19:11:01.526Z,43.74
2019-04-20T19:13:43.449Z,44.38
2019-04-20T19:16:52.430Z,44.76
2019-04-20T19:19:27.640Z,44.80
2019-04-20T19:21:56.109Z,45.16
2019-04-20T19:24:36.030Z,46.16
2019-04-20T19:27:12.635Z,45.88
2019-04-20T19:29:55.548Z,45.94
2019-04-20T19:32:36.522Z,46.78
2019-04-20T19:35:06.828Z,46.61
2019-04-20T19:37:51.637Z,46.34
2019-04-20T19:40:29.049Z,46.88
2019-04-20T19:43:02.467Z,47.76
2019-04-20T19:45:56.602Z,46.49
2019-04-20T19:48:23.040Z,47.33
2019-04-20T19:51:08.396Z,47.33
2019-04-20T19:53:39.492Z,47.21
2019-04-20T19:56:08.211Z,48.19
2019-04-20T19:58:52.938Z,47.20
2019-04-20T20:01:11.790Z,47.43
2019-04-20T20:03:48.335Z,46.84
2019-04-20T20:06:38.082Z,48.04
2019-04-20T20:09:49.829Z,47.33
2019-04-20T20:12:21.037Z,47.22
2019-04-20T20:14:55.515Z,47.85
2019-04-20T20:17:48.402Z,47.82
2019-04-20T20:20:32.383Z,46.48
2019-04-20T20:22:50.404Z,46.58
2019-04-20T20:25:30.703Z,46.44
2019-04-20T20:28:14.558Z,46.44
2019-04-20T20:30:49.642Z,47.00
2019-04-20T20:33:28.000Z,46.44
2019-04-20T20:35:58.635Z,46.58
2019-04-20T20:38:36.968Z,46.02
2019-04-20T20:41:15.142Z,45.31
2019-04-20T20:43:53.620Z,46.58
2019-04-20T20:46:27.515Z,46.63
2019-04-20T20:49:15.301Z,46.84
2019-04-20T20:52:02.437Z,46.51
2019-04-20T20:54:24.769Z,47.07
2019-04-20T20:56:55.012Z,46.52
2019-04-20T20:59:37.327Z,46.59
2019-04-20T21:02:14.560Z,46.69
2019-04-20T21:04:43.749Z,46.74
2019-04-20T21:07:22.585Z,46.25
2019-04-20T21:09:58.709Z,46.49
2019-04-20T21:12:36.401Z,46.87
2019-04-20T21:15:16.978Z,46.82
2019-04-20T21:18:10.820Z,46.81
2019-04-20T21:20:45.317Z,46.75
2019-04-20T21:23:15.180Z,46.87
2019-04-20T21:25:59.008Z,47.05
2019-04-20T21:28:41.971Z,46.57
2019-04-20T21:31:22.437Z,46.43
2019-04-20T21:33:55.212Z,46.82
2019-04-20T21:36:31.787Z,46.31
2019-04-20T21:39:34.556Z,46.51
2019-04-20T21:42:06.466Z,46.39
2019-04-20T21:44:42.571Z,46.12
2019-04-20T21:47:15.721Z,45.73
2019-04-20T21:50:04.960Z,45.84
2019-04-20T21:52:36.147Z,47.10
2019-04-20T21:55:03.960Z,46.56
2019-04-20T21:57:46.186Z,46.66
2019-04-20T22:00:42.583Z,46.22
2019-04-20T22:03:18.581Z,46.68
2019-04-20T22:06:04.990Z,47.41
2019-04-20T22:08:49.342Z,47.31
2019-04-20T22:11:17.871Z,47.87
2019-04-20T22:13:54.558Z,47.06
2019-04-20T22:16:35.325Z,46.72
2019-04-20T22:19:20.916Z,46.85
2019-04-20T22:21:59.098Z,47.06
2019-04-20T22:24:39.926Z,46.94
2019-04-20T22:27:06.459Z,48.24
2019-04-20T22:29:34.463Z,48.16
2019-04-20T22:32:13.408Z,47.93
2019-04-20T22:34:55.963Z,48.39
2019-04-20T22:37:28.727Z,49.14
2019-04-20T22:40:03.722Z,49.59
2019-04-20T22:42:46.526Z,49.49
2019-04-20T22:45:19.079Z,49.73
2019-04-20T22:48:03.475Z,50.01
2019-04-20T22:50:45.384Z,49.52
2019-04-20T22:53:25.955Z,50.21
2019-04-20T22:56:11.089Z,50.69
2019-04-20T22:58:38.407Z,50.92
2019-04-20T23:01:05.786Z,51.73
2019-04-20T23:03:38.799Z,52.10
2019-04-20T23:06:14.546Z,51.62
2019-04-20T23:08:56.420Z,51.54
2019-04-20T23:11:29.998Z,51.48
2019-04-20T23:14:04.581Z,50.77
2019-04-20T23:16:46.568Z,51.47
2019-04-20T23:19:28.760Z,51.85
2019-04-20T23:21:59.782Z,52.67
2019-04-20T23:24:31.162Z,53.01
2019-04-20T23:27:13.969Z,53.40
2019-04-20T23:29:43.632Z,54.08
2019-04-20T23:32:21.322Z,53.71
2019-04-20T23:35:03.900Z,53.74
2019-04-20T23:37:36.989Z,54.23
2019-04-20T23:40:13.706Z,54.31
2019-04-20T23:42:53.658Z,55.06
2019-04-20T23:45:50.862Z,54.87
2019-04-20T23:48:45.159Z,55.68
2019-04-20T23:51:41.820Z,55.86
2019-04-20T23:54:05.967Z,56.15
2019-04-20T23:56:35.314Z,56.15
2019-04-20T23:59:10.747Z,56.08
